»·PEaware :: N708CV KPSP-KLAX

N708CV :: KPSP-KLAX

FLIGHT INFORMATION

Flight Status: Arrived
Operator: Privately registered:
United States
More flights under this callsign
Pilot: Chris Venable (829)
Aircraft: BEECH AIRCRAFT BEECH AIRLINER
(B190)
More flights by this aircraft type
Origin: KPSP Palm Springs Intl
United States
Destination: KLAX Los Angeles Intl
United States
More flights between these airports :: More routes between these airports
Route: CATH1 PSP V388 PDZ V16 LAHAB
File this flight plan on PilotEdge
Remarks: TEC route PSPN12
Altitude:
(Current/Filed)
12,000ft
Speed:
(Current/Filed)
220kts
Departed: 02-Jan-17 03:28 PM
Arrived: 02-Jan-17 04:06 PM
Distance/Time
Traveled:
94nm/0:38
Distance/Time
To Go:
Arrived

Flight Plot

Page will automatically refresh every two minutes.


Map Options




Map Legend


Flown Route
Filed Route
Departure Airport
Arrival Airport
Navaid (VOR, NDB)
Fix

Horizontal Profiles

Position Reports

Time Latitude Longitude Heading Altitude Ground
Speed
02-Jan-17 14:46 33.821517 -116.506633 260 409ft 0kts
02-Jan-17 14:47 33.821517 -116.506633 260 409ft 0kts
02-Jan-17 14:48 33.821517 -116.506633 260 409ft 0kts
02-Jan-17 14:49 33.821517 -116.506633 260 409ft 0kts
02-Jan-17 14:50 33.821517 -116.506633 260 409ft 0kts
02-Jan-17 14:51 33.821517 -116.506633 260 409ft 0kts
02-Jan-17 14:52 33.821517 -116.506633 260 409ft 0kts
02-Jan-17 14:53 33.821517 -116.506633 260 409ft 0kts
02-Jan-17 14:54 33.821517 -116.506633 260 409ft 0kts
02-Jan-17 14:55 33.821517 -116.506633 260 409ft 0kts
02-Jan-17 14:56 33.821517 -116.506633 260 409ft 0kts
02-Jan-17 14:57 33.821517 -116.506633 260 409ft 0kts
02-Jan-17 14:58 33.821517 -116.506633 260 409ft 0kts
02-Jan-17 14:59 33.821517 -116.506633 260 409ft 0kts
02-Jan-17 15:00 33.821517 -116.506633 260 409ft 0kts
02-Jan-17 15:01 33.821517 -116.506633 260 409ft 0kts
02-Jan-17 15:02 33.821517 -116.506633 260 409ft 0kts
02-Jan-17 15:03 33.821517 -116.506633 260 409ft 0kts
02-Jan-17 15:04 33.821517 -116.506633 260 409ft 0kts
02-Jan-17 15:05 33.821517 -116.506633 260 409ft 0kts
02-Jan-17 15:06 33.821517 -116.506633 260 409ft 0kts
02-Jan-17 15:07 33.821517 -116.506633 260 409ft 0kts
02-Jan-17 15:08 33.821517 -116.506633 260 409ft 0kts
02-Jan-17 15:09 33.821517 -116.506633 260 409ft 0kts
02-Jan-17 15:10 33.821517 -116.506633 260 409ft 0kts
02-Jan-17 15:11 33.821517 -116.506633 260 409ft 0kts
02-Jan-17 15:12 33.821517 -116.506633 260 409ft 0kts
02-Jan-17 15:13 33.821517 -116.506633 260 409ft 0kts
02-Jan-17 15:14 33.821517 -116.506633 260 409ft 0kts
02-Jan-17 15:15 33.821517 -116.506633 260 409ft 0kts
02-Jan-17 15:16 33.821517 -116.506633 260 409ft 0kts
02-Jan-17 15:17 33.821573 -116.506435 177 409ft 0kts
02-Jan-17 15:18 33.821573 -116.506435 176 409ft 0kts
02-Jan-17 15:19 33.821573 -116.506435 176 409ft 0kts
02-Jan-17 15:20 33.821513 -116.506415 153 409ft 3kts
02-Jan-17 15:21 33.819684 -116.504995 95 405ft 10kts
02-Jan-17 15:22 33.819287 -116.500462 143 400ft 14kts
02-Jan-17 15:23 33.818522 -116.499058 83 397ft 0kts
02-Jan-17 15:24 33.818522 -116.499058 83 397ft 0kts
02-Jan-17 15:25 33.818522 -116.499058 83 397ft 0kts
02-Jan-17 15:26 33.818522 -116.499058 83 397ft 0kts
02-Jan-17 15:27 33.818530 -116.498972 84 397ft 4kts
02-Jan-17 15:28 33.822584 -116.501395 323 406ft 117kts
02-Jan-17 15:29 33.858697 -116.532814 320 2465ft 194kts
02-Jan-17 15:30 33.898312 -116.573162 320 4179ft 183kts
02-Jan-17 15:31 33.922285 -116.546250 118 5786ft 174kts
02-Jan-17 15:32 33.899386 -116.494317 122 7395ft 179kts
02-Jan-17 15:33 33.876677 -116.440522 126 9025ft 186kts
02-Jan-17 15:34 33.851463 -116.384688 122 10637ft 193kts
02-Jan-17 15:35 33.821567 -116.333105 178 11994ft 190kts
02-Jan-17 15:36 33.807745 -116.382309 281 12004ft 209kts
02-Jan-17 15:37 33.837772 -116.445158 301 11999ft 226kts
02-Jan-17 15:38 33.874402 -116.507864 301 11997ft 230kts
02-Jan-17 15:39 33.906661 -116.574372 285 11998ft 232kts
02-Jan-17 15:40 33.925606 -116.648879 285 11997ft 234kts
02-Jan-17 15:41 33.944563 -116.723656 284 12010ft 235kts
02-Jan-17 15:42 33.946575 -116.800912 267 11992ft 234kts
02-Jan-17 15:43 33.943953 -116.878945 267 12000ft 234kts
02-Jan-17 15:44 33.941256 -116.956919 267 12001ft 233kts
02-Jan-17 15:45 33.938522 -117.034423 266 12001ft 232kts
02-Jan-17 15:46 33.935736 -117.111878 266 12000ft 231kts
02-Jan-17 15:47 33.932710 -117.188361 265 12001ft 230kts
02-Jan-17 15:48 33.929407 -117.263722 266 10524ft 225kts
02-Jan-17 15:49 33.926220 -117.337893 266 9031ft 225kts
02-Jan-17 15:50 33.923092 -117.412229 266 8008ft 212kts
02-Jan-17 15:51 33.920352 -117.478191 267 8008ft 190kts
02-Jan-17 15:52 33.918413 -117.539443 272 8012ft 183kts
02-Jan-17 15:53 33.919659 -117.601513 273 8024ft 201kts
02-Jan-17 15:54 33.921057 -117.672588 273 8017ft 226kts
02-Jan-17 15:55 33.924197 -117.748677 288 8001ft 230kts
02-Jan-17 15:56 33.949629 -117.827175 291 6516ft 263kts
02-Jan-17 15:57 33.977405 -117.903953 292 5078ft 244kts
02-Jan-17 15:58 33.977416 -117.974793 261 5019ft 205kts
02-Jan-17 15:59 33.971224 -118.042194 260 5019ft 207kts
02-Jan-17 16:00 33.964658 -118.110104 260 4573ft 198kts
02-Jan-17 16:01 33.958795 -118.169317 260 3646ft 170kts
02-Jan-17 16:02 33.953319 -118.223425 261 2774ft 166kts
02-Jan-17 16:03 33.948041 -118.276775 262 1902ft 142kts
02-Jan-17 16:04 33.943676 -118.320116 262 1179ft 121kts
02-Jan-17 16:05 33.939705 -118.359521 262 525ft 120kts
02-Jan-17 16:06 33.936264 -118.392591 267 104ft 34kts
02-Jan-17 16:07 33.935343 -118.393665 192 104ft 0kts
02-Jan-17 16:08 33.934120 -118.394543 253 106ft 9kts
02-Jan-17 16:09 33.934015 -118.395527 258 107ft 0kts

Navigation Log

Ident Type
1. KPSP Airport
2. PSP Navaid
3. DEWAY Fix
4. ACINS Fix
5. LENHO Fix
6. KNDAL Fix
7. PDZ Navaid
8. WISUP Fix
9. PRADO Fix
10. LAHAB Fix
11. KLAX Airport